sensor_id;sensor_type;location;lat;lon;timestamp;pressure;altitude;pressure_sealevel;temperature;humidity
80164;BME280;70071;55.130;61.268;2024-01-11T00:01:33;96773.28;;;-16.75;31.47
80164;BME280;70071;55.130;61.268;2024-01-11T00:03:59;96737.09;;;-16.96;30.63
80164;BME280;70071;55.130;61.268;2024-01-11T00:06:25;96857.78;;;-16.54;32.36
80164;BME280;70071;55.130;61.268;2024-01-11T00:08:51;96833.56;;;-16.24;32.25
80164;BME280;70071;55.130;61.268;2024-01-11T00:11:17;96804.53;;;-16.36;31.58
80164;BME280;70071;55.130;61.268;2024-01-11T00:13:43;96832.91;;;-16.28;31.89
80164;BME280;70071;55.130;61.268;2024-01-11T00:16:09;96746.91;;;-17.07;32.33
80164;BME280;70071;55.130;61.268;2024-01-11T00:18:35;96869.81;;;-16.21;31.41
80164;BME280;70071;55.130;61.268;2024-01-11T00:21:01;96940.34;;;-15.37;32.17
80164;BME280;70071;55.130;61.268;2024-01-11T00:23:32;96840.28;;;-16.23;32.26
80164;BME280;70071;55.130;61.268;2024-01-11T00:25:58;96934.09;;;-16.20;32.68
80164;BME280;70071;55.130;61.268;2024-01-11T00:28:25;96950.69;;;-15.77;32.77
80164;BME280;70071;55.130;61.268;2024-01-11T00:30:51;96950.09;;;-15.82;32.99
80164;BME280;70071;55.130;61.268;2024-01-11T00:33:17;96859.44;;;-16.16;32.85
80164;BME280;70071;55.130;61.268;2024-01-11T00:35:43;96902.41;;;-16.31;33.39
80164;BME280;70071;55.130;61.268;2024-01-11T00:38:09;96789.53;;;-16.42;32.10
80164;BME280;70071;55.130;61.268;2024-01-11T00:40:35;96736.31;;;-16.61;31.87
80164;BME280;70071;55.130;61.268;2024-01-11T00:43:01;96792.78;;;-16.39;31.85
80164;BME280;70071;55.130;61.268;2024-01-11T00:45:27;96864.97;;;-16.08;32.42
80164;BME280;70071;55.130;61.268;2024-01-11T00:47:53;96875.47;;;-16.33;34.16
80164;BME280;70071;55.130;61.268;2024-01-11T00:50:19;96880.09;;;-16.24;32.56
80164;BME280;70071;55.130;61.268;2024-01-11T00:52:45;96840.06;;;-16.55;32.44
80164;BME280;70071;55.130;61.268;2024-01-11T00:55:11;96789.31;;;-16.92;33.71
80164;BME280;70071;55.130;61.268;2024-01-11T00:57:37;96913.41;;;-15.59;32.33
80164;BME280;70071;55.130;61.268;2024-01-11T01:00:03;96785.03;;;-16.36;32.45
80164;BME280;70071;55.130;61.268;2024-01-11T01:02:30;96867.13;;;-16.92;33.22
80164;BME280;70071;55.130;61.268;2024-01-11T01:04:56;96866.03;;;-16.87;34.55
80164;BME280;70071;55.130;61.268;2024-01-11T01:07:22;96754.94;;;-18.15;34.21
80164;BME280;70071;55.130;61.268;2024-01-11T01:09:48;96789.69;;;-16.82;33.40
80164;BME280;70071;55.130;61.268;2024-01-11T01:12:16;96843.09;;;-16.85;33.34
80164;BME280;70071;55.130;61.268;2024-01-11T01:14:42;96918.88;;;-16.20;33.27
80164;BME280;70071;55.130;61.268;2024-01-11T01:17:08;96716.44;;;-18.02;33.81
80164;BME280;70071;55.130;61.268;2024-01-11T01:19:34;96935.06;;;-16.80;33.87
80164;BME280;70071;55.130;61.268;2024-01-11T01:22:00;96864.94;;;-16.25;34.74
80164;BME280;70071;55.130;61.268;2024-01-11T01:24:26;96819.09;;;-17.75;35.12
80164;BME280;70071;55.130;61.268;2024-01-11T01:26:52;96772.09;;;-17.61;34.61
80164;BME280;70071;55.130;61.268;2024-01-11T01:29:18;96830.03;;;-16.95;34.09
80164;BME280;70071;55.130;61.268;2024-01-11T01:31:44;96698.59;;;-17.23;34.24
80164;BME280;70071;55.130;61.268;2024-01-11T01:34:10;96680.53;;;-17.54;33.48
80164;BME280;70071;55.130;61.268;2024-01-11T01:36:36;96864.63;;;-16.56;34.24
80164;BME280;70071;55.130;61.268;2024-01-11T01:39:02;96888.44;;;-16.58;34.18
80164;BME280;70071;55.130;61.268;2024-01-11T01:58:17;96701.69;;;-16.45;32.49
80164;BME280;70071;55.130;61.268;2024-01-11T02:00:45;96832.41;;;-15.31;32.14
80164;BME280;70071;55.130;61.268;2024-01-11T02:03:20;96876.84;;;-15.56;32.48
80164;BME280;70071;55.130;61.268;2024-01-11T02:05:46;96771.22;;;-16.30;33.08
80164;BME280;70071;55.130;61.268;2024-01-11T02:08:16;96759.56;;;-16.34;33.34
80164;BME280;70071;55.130;61.268;2024-01-11T02:11:00;96776.72;;;-15.87;33.12
80164;BME280;70071;55.130;61.268;2024-01-11T02:13:27;96845.75;;;-15.44;31.95
80164;BME280;70071;55.130;61.268;2024-01-11T02:15:54;96768.22;;;-16.21;32.66
80164;BME280;70071;55.130;61.268;2024-01-11T02:18:20;96675.03;;;-16.36;32.15
80164;BME280;70071;55.130;61.268;2024-01-11T02:20:46;96897.13;;;-15.04;32.45
80164;BME280;70071;55.130;61.268;2024-01-11T02:23:17;96896.63;;;-15.28;31.64
80164;BME280;70071;55.130;61.268;2024-01-11T02:25:43;96841.78;;;-15.67;31.97
80164;BME280;70071;55.130;61.268;2024-01-11T02:28:09;96776.25;;;-16.48;32.58
80164;BME280;70071;55.130;61.268;2024-01-11T02:30:37;96761.72;;;-16.81;33.98
80164;BME280;70071;55.130;61.268;2024-01-11T02:33:04;96871.00;;;-15.58;33.16
80164;BME280;70071;55.130;61.268;2024-01-11T02:35:31;96906.97;;;-15.31;34.08
80164;BME280;70071;55.130;61.268;2024-01-11T02:37:58;96875.28;;;-15.76;33.57
80164;BME280;70071;55.130;61.268;2024-01-11T02:40:26;96899.13;;;-15.96;35.19
80164;BME280;70071;55.130;61.268;2024-01-11T02:42:52;96914.38;;;-15.96;34.99
80164;BME280;70071;55.130;61.268;2024-01-11T02:45:17;96923.13;;;-15.84;35.45
80164;BME280;70071;55.130;61.268;2024-01-11T02:47:44;96912.34;;;-16.26;36.32
80164;BME280;70071;55.130;61.268;2024-01-11T02:50:10;96887.81;;;-16.45;35.75
80164;BME280;70071;55.130;61.268;2024-01-11T02:52:51;96926.28;;;-16.54;36.51
80164;BME280;70071;55.130;61.268;2024-01-11T02:55:23;96723.75;;;-17.76;37.39
80164;BME280;70071;55.130;61.268;2024-01-11T02:57:49;96727.09;;;-18.15;37.62
80164;BME280;70071;55.130;61.268;2024-01-11T03:00:18;96696.22;;;-18.44;38.46
80164;BME280;70071;55.130;61.268;2024-01-11T03:02:56;96945.66;;;-17.30;41.09
80164;BME280;70071;55.130;61.268;2024-01-11T03:05:26;96718.50;;;-18.52;39.01
80164;BME280;70071;55.130;61.268;2024-01-11T03:07:52;96811.44;;;-18.35;40.02
80164;BME280;70071;55.130;61.268;2024-01-11T03:10:20;96946.56;;;-17.31;41.84
80164;BME280;70071;55.130;61.268;2024-01-11T03:12:49;96716.69;;;-18.28;40.47
80164;BME280;70071;55.130;61.268;2024-01-11T03:15:15;96889.63;;;-17.45;40.56
80164;BME280;70071;55.130;61.268;2024-01-11T03:17:41;96943.44;;;-17.18;41.47
80164;BME280;70071;55.130;61.268;2024-01-11T03:20:08;96949.06;;;-16.90;41.76
80164;BME280;70071;55.130;61.268;2024-01-11T03:22:34;96941.84;;;-17.00;42.54
80164;BME280;70071;55.130;61.268;2024-01-11T03:25:00;96952.94;;;-17.02;42.42
80164;BME280;70071;55.130;61.268;2024-01-11T03:27:26;96964.28;;;-16.71;42.34
80164;BME280;70071;55.130;61.268;2024-01-11T03:29:52;96918.75;;;-16.93;41.59
80164;BME280;70071;55.130;61.268;2024-01-11T03:32:18;96959.25;;;-16.33;42.03
80164;BME280;70071;55.130;61.268;2024-01-11T03:34:44;96939.81;;;-16.34;41.43
80164;BME280;70071;55.130;61.268;2024-01-11T03:37:10;96984.06;;;-15.83;41.56
80164;BME280;70071;55.130;61.268;2024-01-11T03:39:36;96951.91;;;-15.84;40.96
80164;BME280;70071;55.130;61.268;2024-01-11T03:42:02;96985.09;;;-15.69;40.81
80164;BME280;70071;55.130;61.268;2024-01-11T03:44:30;96986.38;;;-15.61;41.06
80164;BME280;70071;55.130;61.268;2024-01-11T03:46:56;96938.81;;;-15.76;40.82
80164;BME280;70071;55.130;61.268;2024-01-11T03:49:23;96985.44;;;-15.41;39.90
80164;BME280;70071;55.130;61.268;2024-01-11T03:51:49;96996.78;;;-15.30;40.47
80164;BME280;70071;55.130;61.268;2024-01-11T03:54:15;96967.56;;;-15.39;40.07
80164;BME280;70071;55.130;61.268;2024-01-11T03:56:41;96998.88;;;-15.21;39.20
80164;BME280;70071;55.130;61.268;2024-01-11T03:59:07;97007.06;;;-15.14;39.81
80164;BME280;70071;55.130;61.268;2024-01-11T04:01:33;96979.91;;;-15.31;39.67
80164;BME280;70071;55.130;61.268;2024-01-11T04:04:03;97008.94;;;-15.55;39.68
80164;BME280;70071;55.130;61.268;2024-01-11T04:06:29;97005.59;;;-15.55;39.83
80164;BME280;70071;55.130;61.268;2024-01-11T04:09:14;96886.84;;;-16.42;39.53
80164;BME280;70071;55.130;61.268;2024-01-11T04:11:43;96918.41;;;-16.48;39.65
80164;BME280;70071;55.130;61.268;2024-01-11T04:14:09;97033.03;;;-15.98;40.88
80164;BME280;70071;55.130;61.268;2024-01-11T04:16:42;96953.31;;;-16.15;40.92
80164;BME280;70071;55.130;61.268;2024-01-11T04:19:08;97032.38;;;-15.48;39.89
80164;BME280;70071;55.130;61.268;2024-01-11T04:21:38;96917.69;;;-16.13;39.77
80164;BME280;70071;55.130;61.268;2024-01-11T04:24:10;96927.34;;;-16.02;39.86
80164;BME280;70071;55.130;61.268;2024-01-11T04:26:41;96913.53;;;-16.33;39.21
80164;BME280;70071;55.130;61.268;2024-01-11T04:29:07;96830.84;;;-16.94;38.68
80164;BME280;70071;55.130;61.268;2024-01-11T04:31:59;96943.06;;;-15.77;38.06
80164;BME280;70071;55.130;61.268;2024-01-11T05:24:19;97003.34;;;-17.58;36.79
80164;BME280;70071;55.130;61.268;2024-01-11T05:26:48;97014.13;;;-17.53;36.22
80164;BME280;70071;55.130;61.268;2024-01-11T05:29:36;97114.22;;;-16.77;35.26
80164;BME280;70071;55.130;61.268;2024-01-11T06:11:25;97132.28;;;-14.90;32.25
80164;BME280;70071;55.130;61.268;2024-01-11T06:13:52;97045.19;;;-15.32;32.68
80164;BME280;70071;55.130;61.268;2024-01-11T06:17:20;97008.78;;;-15.15;31.88
80164;BME280;70071;55.130;61.268;2024-01-11T06:20:21;97125.97;;;-14.31;31.91
80164;BME280;70071;55.130;61.268;2024-01-11T06:23:01;96946.81;;;-15.49;31.88
80164;BME280;70071;55.130;61.268;2024-01-11T06:25:35;97064.41;;;-14.56;31.33
80164;BME280;70071;55.130;61.268;2024-01-11T06:37:09;97160.78;;;-13.96;30.97
80164;BME280;70071;55.130;61.268;2024-01-11T06:39:35;97042.09;;;-14.85;30.90
80164;BME280;70071;55.130;61.268;2024-01-11T06:42:01;97054.84;;;-14.51;30.68
80164;BME280;70071;55.130;61.268;2024-01-11T06:44:27;97046.97;;;-15.15;30.12
80164;BME280;70071;55.130;61.268;2024-01-11T06:47:34;97148.63;;;-13.91;31.03
80164;BME280;70071;55.130;61.268;2024-01-11T06:50:09;97038.78;;;-14.36;31.13
80164;BME280;70071;55.130;61.268;2024-01-11T06:53:02;96965.78;;;-15.74;30.85
80164;BME280;70071;55.130;61.268;2024-01-11T06:55:55;97141.91;;;-14.27;31.01
80164;BME280;70071;55.130;61.268;2024-01-11T06:58:24;97053.31;;;-15.43;31.24
80164;BME280;70071;55.130;61.268;2024-01-11T07:00:50;97018.28;;;-15.18;30.91
80164;BME280;70071;55.130;61.268;2024-01-11T07:07:03;96972.41;;;-15.17;30.88
80164;BME280;70071;55.130;61.268;2024-01-11T07:09:43;97088.84;;;-15.05;30.98
80164;BME280;70071;55.130;61.268;2024-01-11T07:12:15;96967.69;;;-15.60;30.75
80164;BME280;70071;55.130;61.268;2024-01-11T07:14:46;97037.75;;;-14.82;30.29
80164;BME280;70071;55.130;61.268;2024-01-11T07:17:12;97045.94;;;-14.26;30.96
80164;BME280;70071;55.130;61.268;2024-01-11T07:19:38;97028.13;;;-14.60;29.73
80164;BME280;70071;55.130;61.268;2024-01-11T07:22:04;97038.72;;;-14.52;29.64
80164;BME280;70071;55.130;61.268;2024-01-11T07:24:30;97108.53;;;-14.38;30.49
80164;BME280;70071;55.130;61.268;2024-01-11T07:27:04;96958.34;;;-15.07;30.55
80164;BME280;70071;55.130;61.268;2024-01-11T07:29:31;97051.44;;;-14.85;30.23
80164;BME280;70071;55.130;61.268;2024-01-11T07:31:57;97140.34;;;-14.12;29.88
80164;BME280;70071;55.130;61.268;2024-01-11T07:34:34;97037.34;;;-15.27;30.55
80164;BME280;70071;55.130;61.268;2024-01-11T07:37:01;96987.16;;;-15.95;30.88
80164;BME280;70071;55.130;61.268;2024-01-11T07:39:27;97054.25;;;-15.44;31.30
80164;BME280;70071;55.130;61.268;2024-01-11T07:41:53;97108.03;;;-14.45;30.95
80164;BME280;70071;55.130;61.268;2024-01-11T07:44:19;97164.03;;;-14.10;30.67
80164;BME280;70071;55.130;61.268;2024-01-11T07:46:45;97143.75;;;-14.81;30.62
80164;BME280;70071;55.130;61.268;2024-01-11T07:49:18;97180.00;;;-14.41;31.22
80164;BME280;70071;55.130;61.268;2024-01-11T07:51:44;97186.66;;;-14.21;30.48
80164;BME280;70071;55.130;61.268;2024-01-11T07:54:10;97157.75;;;-14.55;30.43
80164;BME280;70071;55.130;61.268;2024-01-11T07:56:36;97163.72;;;-14.04;30.91
80164;BME280;70071;55.130;61.268;2024-01-11T07:59:01;97190.75;;;-13.34;30.43
80164;BME280;70071;55.130;61.268;2024-01-11T08:01:27;97160.53;;;-13.58;30.06
80164;BME280;70071;55.130;61.268;2024-01-11T08:03:54;97132.47;;;-13.58;29.81
80164;BME280;70071;55.130;61.268;2024-01-11T08:06:19;97128.97;;;-13.39;29.51
80164;BME280;70071;55.130;61.268;2024-01-11T08:08:45;97190.44;;;-13.44;29.21
80164;BME280;70071;55.130;61.268;2024-01-11T08:11:17;97156.63;;;-13.48;29.21
80164;BME280;70071;55.130;61.268;2024-01-11T08:13:44;97075.72;;;-14.11;29.72
80164;BME280;70071;55.130;61.268;2024-01-11T08:16:20;97156.31;;;-14.08;30.18
80164;BME280;70071;55.130;61.268;2024-01-11T08:18:47;97185.94;;;-14.95;31.13
80164;BME280;70071;55.130;61.268;2024-01-11T08:21:14;97195.66;;;-15.79;32.31
80164;BME280;70071;55.130;61.268;2024-01-11T08:23:41;97134.00;;;-16.03;34.06
80164;BME280;70071;55.130;61.268;2024-01-11T08:26:12;97167.00;;;-15.83;34.11
80164;BME280;70071;55.130;61.268;2024-01-11T08:28:39;97158.59;;;-15.66;33.53
80164;BME280;70071;55.130;61.268;2024-01-11T08:31:06;97157.19;;;-15.90;33.65
80164;BME280;70071;55.130;61.268;2024-01-11T08:33:32;97155.31;;;-15.87;33.24
80164;BME280;70071;55.130;61.268;2024-01-11T08:35:58;97121.88;;;-16.36;34.22
80164;BME280;70071;55.130;61.268;2024-01-11T08:38:24;97167.75;;;-15.81;33.46
80164;BME280;70071;55.130;61.268;2024-01-11T08:40:51;97174.75;;;-15.86;32.93
80164;BME280;70071;55.130;61.268;2024-01-11T08:43:17;97187.81;;;-15.94;34.90
80164;BME280;70071;55.130;61.268;2024-01-11T08:45:43;97110.91;;;-16.18;33.64
80164;BME280;70071;55.130;61.268;2024-01-11T08:48:09;97136.22;;;-15.77;33.12
80164;BME280;70071;55.130;61.268;2024-01-11T08:50:36;97179.41;;;-15.77;33.28
80164;BME280;70071;55.130;61.268;2024-01-11T08:53:18;97104.13;;;-16.17;32.81
80164;BME280;70071;55.130;61.268;2024-01-11T08:56:07;97028.28;;;-16.25;33.08
80164;BME280;70071;55.130;61.268;2024-01-11T08:58:33;97229.22;;;-14.95;33.22
80164;BME280;70071;55.130;61.268;2024-01-11T09:01:23;97224.22;;;-14.79;32.38
80164;BME280;70071;55.130;61.268;2024-01-11T09:03:50;97165.97;;;-15.60;32.94
80164;BME280;70071;55.130;61.268;2024-01-11T09:06:17;97219.28;;;-14.82;33.31
80164;BME280;70071;55.130;61.268;2024-01-11T09:08:46;97112.88;;;-14.58;31.86
80164;BME280;70071;55.130;61.268;2024-01-11T09:11:16;97227.72;;;-13.42;30.35
80164;BME280;70071;55.130;61.268;2024-01-11T09:13:43;97168.44;;;-13.47;30.35
80164;BME280;70071;55.130;61.268;2024-01-11T09:16:09;97151.81;;;-13.22;29.49
80164;BME280;70071;55.130;61.268;2024-01-11T09:21:15;97214.19;;;-12.48;28.68
80164;BME280;70071;55.130;61.268;2024-01-11T09:23:44;97104.72;;;-13.16;28.54
80164;BME280;70071;55.130;61.268;2024-01-11T09:26:10;97228.16;;;-11.93;27.95
80164;BME280;70071;55.130;61.268;2024-01-11T09:28:36;97090.66;;;-12.77;28.05
80164;BME280;70071;55.130;61.268;2024-01-11T09:31:04;97221.03;;;-11.16;28.05
80164;BME280;70071;55.130;61.268;2024-01-11T09:33:30;97024.25;;;-11.91;27.94
80164;BME280;70071;55.130;61.268;2024-01-11T09:35:58;97047.47;;;-12.52;26.02
80164;BME280;70071;55.130;61.268;2024-01-11T09:38:24;97110.22;;;-11.88;27.23
80164;BME280;70071;55.130;61.268;2024-01-11T09:41:04;97094.03;;;-11.74;26.96
80164;BME280;70071;55.130;61.268;2024-01-11T09:43:35;97213.91;;;-11.25;26.88
80164;BME280;70071;55.130;61.268;2024-01-11T09:48:56;97069.06;;;-11.71;26.22
80164;BME280;70071;55.130;61.268;2024-01-11T09:51:49;97186.06;;;-10.33;25.90
80164;BME280;70071;55.130;61.268;2024-01-11T09:54:18;97226.03;;;-9.91;26.21
80164;BME280;70071;55.130;61.268;2024-01-11T09:56:48;97216.56;;;-10.03;24.84
80164;BME280;70071;55.130;61.268;2024-01-11T09:59:18;97166.47;;;-10.22;24.87
80164;BME280;70071;55.130;61.268;2024-01-11T10:02:00;97179.16;;;-10.33;24.54
80164;BME280;70071;55.130;61.268;2024-01-11T10:04:30;97169.19;;;-10.78;25.86
80164;BME280;70071;55.130;61.268;2024-01-11T10:06:56;97219.28;;;-10.19;25.49
80164;BME280;70071;55.130;61.268;2024-01-11T10:09:23;97107.13;;;-10.68;24.97
80164;BME280;70071;55.130;61.268;2024-01-11T10:11:49;97134.63;;;-10.58;24.76
80164;BME280;70071;55.130;61.268;2024-01-11T10:14:16;97244.00;;;-10.18;25.83
80164;BME280;70071;55.130;61.268;2024-01-11T10:16:42;97233.69;;;-10.31;25.47
80164;BME280;70071;55.130;61.268;2024-01-11T10:19:24;97148.78;;;-10.52;25.10
80164;BME280;70071;55.130;61.268;2024-01-11T10:21:53;97265.25;;;-9.76;24.85
80164;BME280;70071;55.130;61.268;2024-01-11T10:24:22;97174.47;;;-10.01;24.81
80164;BME280;70071;55.130;61.268;2024-01-11T10:26:56;97109.03;;;-10.72;25.14
80164;BME280;70071;55.130;61.268;2024-01-11T10:29:23;97277.28;;;-9.63;24.97
80164;BME280;70071;55.130;61.268;2024-01-11T10:31:53;97287.06;;;-9.30;24.73
80164;BME280;70071;55.130;61.268;2024-01-11T10:34:23;97114.53;;;-10.25;25.19
80164;BME280;70071;55.130;61.268;2024-01-11T10:36:54;97093.94;;;-10.37;24.75
80164;BME280;70071;55.130;61.268;2024-01-11T10:47:19;97179.78;;;-10.16;24.42
80164;BME280;70071;55.130;61.268;2024-01-11T10:49:49;97131.25;;;-10.45;24.57
80164;BME280;70071;55.130;61.268;2024-01-11T10:52:22;97313.38;;;-9.26;24.96
80164;BME280;70071;55.130;61.268;2024-01-11T10:54:50;97302.19;;;-9.25;24.38
80164;BME280;70071;55.130;61.268;2024-01-11T10:57:18;97284.38;;;-9.41;24.69
80164;BME280;70071;55.130;61.268;2024-01-11T10:59:44;97220.47;;;-10.25;24.95
80164;BME280;70071;55.130;61.268;2024-01-11T11:02:11;97263.78;;;-10.33;25.44
80164;BME280;70071;55.130;61.268;2024-01-11T11:04:41;97235.00;;;-10.51;26.33
80164;BME280;70071;55.130;61.268;2024-01-11T11:07:09;97296.00;;;-10.29;26.07
80164;BME280;70071;55.130;61.268;2024-01-11T11:09:37;97192.16;;;-10.76;25.59
80164;BME280;70071;55.130;61.268;2024-01-11T11:12:06;97265.19;;;-10.42;26.07
80164;BME280;70071;55.130;61.268;2024-01-11T11:14:34;97262.72;;;-10.03;26.38
80164;BME280;70071;55.130;61.268;2024-01-11T11:17:00;97197.84;;;-10.85;26.92
80164;BME280;70071;55.130;61.268;2024-01-11T11:19:27;97195.06;;;-11.24;26.99
80164;BME280;70071;55.130;61.268;2024-01-11T11:21:56;97221.19;;;-10.90;26.75
80164;BME280;70071;55.130;61.268;2024-01-11T11:24:25;97118.97;;;-11.22;26.54
80164;BME280;70071;55.130;61.268;2024-01-11T11:26:56;97169.69;;;-11.00;26.41
80164;BME280;70071;55.130;61.268;2024-01-11T11:29:23;97208.59;;;-10.66;26.48
80164;BME280;70071;55.130;61.268;2024-01-11T11:31:49;97244.47;;;-10.66;26.94
80164;BME280;70071;55.130;61.268;2024-01-11T11:46:21;97273.53;;;-10.38;27.50
80164;BME280;70071;55.130;61.268;2024-01-11T11:49:18;97267.44;;;-10.64;26.75
80164;BME280;70071;55.130;61.268;2024-01-11T11:51:59;97172.94;;;-11.25;26.41
80164;BME280;70071;55.130;61.268;2024-01-11T11:58:12;97301.50;;;-10.62;26.56
80164;BME280;70071;55.130;61.268;2024-01-11T12:00:49;97209.53;;;-11.23;26.91
80164;BME280;70071;55.130;61.268;2024-01-11T12:03:16;97196.47;;;-11.47;26.90
80164;BME280;70071;55.130;61.268;2024-01-11T12:05:43;97230.09;;;-11.24;27.63
80164;BME280;70071;55.130;61.268;2024-01-11T12:08:09;97286.34;;;-10.94;28.15
80164;BME280;70071;55.130;61.268;2024-01-11T12:10:36;97310.56;;;-10.85;28.35
80164;BME280;70071;55.130;61.268;2024-01-11T12:13:05;97306.72;;;-11.07;28.34
80164;BME280;70071;55.130;61.268;2024-01-11T12:15:40;97251.94;;;-11.48;27.76
80164;BME280;70071;55.130;61.268;2024-01-11T12:18:06;97246.19;;;-11.51;27.33
80164;BME280;70071;55.130;61.268;2024-01-11T12:20:35;97207.50;;;-11.75;28.24
80164;BME280;70071;55.130;61.268;2024-01-11T12:23:01;97208.94;;;-11.86;28.10
80164;BME280;70071;55.130;61.268;2024-01-11T12:25:37;97106.44;;;-12.40;28.03
80164;BME280;70071;55.130;61.268;2024-01-11T12:28:03;97310.75;;;-11.32;28.20
80164;BME280;70071;55.130;61.268;2024-01-11T12:30:29;97281.56;;;-11.44;28.17
80164;BME280;70071;55.130;61.268;2024-01-11T12:32:56;97245.06;;;-11.76;28.37
80164;BME280;70071;55.130;61.268;2024-01-11T12:35:23;97288.97;;;-11.53;28.79
80164;BME280;70071;55.130;61.268;2024-01-11T12:37:58;97293.63;;;-11.46;28.80
80164;BME280;70071;55.130;61.268;2024-01-11T12:50:16;97353.41;;;-11.02;28.19
80164;BME280;70071;55.130;61.268;2024-01-11T13:02:16;97356.75;;;-11.16;29.14
80164;BME280;70071;55.130;61.268;2024-01-11T13:05:08;97157.03;;;-12.61;29.47
80164;BME280;70071;55.130;61.268;2024-01-11T13:10:48;97344.59;;;-11.57;30.61
80164;BME280;70071;55.130;61.268;2024-01-11T13:13:14;97316.06;;;-11.65;29.41
80164;BME280;70071;55.130;61.268;2024-01-11T13:15:40;97347.31;;;-11.30;29.87
80164;BME280;70071;55.130;61.268;2024-01-11T13:18:06;97348.69;;;-11.38;30.55
80164;BME280;70071;55.130;61.268;2024-01-11T13:20:32;97371.91;;;-11.41;29.50
80164;BME280;70071;55.130;61.268;2024-01-11T13:25:44;97247.41;;;-12.80;31.17
80164;BME280;70071;55.130;61.268;2024-01-11T13:28:47;97345.34;;;-12.47;32.63
80164;BME280;70071;55.130;61.268;2024-01-11T13:32:13;97335.78;;;-12.28;31.30
80164;BME280;70071;55.130;61.268;2024-01-11T13:34:39;97342.44;;;-12.25;31.14
80164;BME280;70071;55.130;61.268;2024-01-11T13:37:06;97248.00;;;-12.59;31.76
80164;BME280;70071;55.130;61.268;2024-01-11T13:39:32;97337.59;;;-11.84;31.01
80164;BME280;70071;55.130;61.268;2024-01-11T13:41:58;97344.50;;;-12.16;31.55
80164;BME280;70071;55.130;61.268;2024-01-11T13:44:26;97352.50;;;-12.06;31.29
80164;BME280;70071;55.130;61.268;2024-01-11T13:46:52;97355.81;;;-12.20;31.79
80164;BME280;70071;55.130;61.268;2024-01-11T13:49:18;97312.34;;;-12.68;31.99
80164;BME280;70071;55.130;61.268;2024-01-11T13:51:44;97342.78;;;-12.47;31.83
80164;BME280;70071;55.130;61.268;2024-01-11T13:54:10;97355.91;;;-12.22;31.78
80164;BME280;70071;55.130;61.268;2024-01-11T13:56:40;97348.63;;;-11.83;31.86
80164;BME280;70071;55.130;61.268;2024-01-11T13:59:07;97351.13;;;-12.28;31.50
80164;BME280;70071;55.130;61.268;2024-01-11T14:01:33;97339.28;;;-11.99;31.88
80164;BME280;70071;55.130;61.268;2024-01-11T14:03:59;97334.28;;;-11.86;31.97
80164;BME280;70071;55.130;61.268;2024-01-11T14:06:25;97289.53;;;-12.39;31.48
80164;BME280;70071;55.130;61.268;2024-01-11T14:08:56;97316.97;;;-12.27;31.35
80164;BME280;70071;55.130;61.268;2024-01-11T14:11:22;97311.09;;;-12.45;31.75
80164;BME280;70071;55.130;61.268;2024-01-11T14:13:48;97335.25;;;-12.03;32.81
80164;BME280;70071;55.130;61.268;2024-01-11T14:16:14;97322.06;;;-12.27;32.47
80164;BME280;70071;55.130;61.268;2024-01-11T14:18:48;97317.13;;;-12.30;32.20
80164;BME280;70071;55.130;61.268;2024-01-11T14:21:17;97330.31;;;-12.38;33.12
80164;BME280;70071;55.130;61.268;2024-01-11T14:23:43;97311.63;;;-12.38;32.06
80164;BME280;70071;55.130;61.268;2024-01-11T14:26:15;97350.13;;;-12.09;31.76
80164;BME280;70071;55.130;61.268;2024-01-11T14:28:41;97337.28;;;-11.93;32.10
80164;BME280;70071;55.130;61.268;2024-01-11T14:31:08;97350.94;;;-11.79;31.78
80164;BME280;70071;55.130;61.268;2024-01-11T14:33:34;97342.88;;;-12.17;32.53
80164;BME280;70071;55.130;61.268;2024-01-11T14:43:13;97332.41;;;-13.27;34.36
80164;BME280;70071;55.130;61.268;2024-01-11T14:45:39;97340.59;;;-12.87;34.17
80164;BME280;70071;55.130;61.268;2024-01-11T14:48:06;97345.72;;;-12.71;33.58
80164;BME280;70071;55.130;61.268;2024-01-11T14:50:32;97311.09;;;-13.60;34.04
80164;BME280;70071;55.130;61.268;2024-01-11T14:52:59;97338.38;;;-12.77;34.65
80164;BME280;70071;55.130;61.268;2024-01-11T14:55:25;97321.59;;;-12.49;34.29
80164;BME280;70071;55.130;61.268;2024-01-11T14:57:51;97315.25;;;-13.08;34.44
80164;BME280;70071;55.130;61.268;2024-01-11T15:00:17;97290.91;;;-12.49;33.53
80164;BME280;70071;55.130;61.268;2024-01-11T15:02:44;97304.84;;;-12.87;34.31
80164;BME280;70071;55.130;61.268;2024-01-11T15:05:12;97308.13;;;-13.01;33.90
80164;BME280;70071;55.130;61.268;2024-01-11T15:07:38;97304.00;;;-13.70;34.73
80164;BME280;70071;55.130;61.268;2024-01-11T15:10:13;97294.53;;;-13.86;34.38
80164;BME280;70071;55.130;61.268;2024-01-11T15:12:47;97321.16;;;-13.91;35.97
80164;BME280;70071;55.130;61.268;2024-01-11T15:15:13;97321.75;;;-14.04;36.65
80164;BME280;70071;55.130;61.268;2024-01-11T15:17:39;97349.38;;;-13.60;36.38
80164;BME280;70071;55.130;61.268;2024-01-11T15:20:05;97321.88;;;-14.07;35.92
80164;BME280;70071;55.130;61.268;2024-01-11T15:22:35;97226.59;;;-14.22;35.42
80164;BME280;70071;55.130;61.268;2024-01-11T15:25:01;97288.66;;;-14.59;36.31
80164;BME280;70071;55.130;61.268;2024-01-11T15:27:29;97241.50;;;-14.86;36.74
80164;BME280;70071;55.130;61.268;2024-01-11T15:29:56;97350.00;;;-13.91;36.47
80164;BME280;70071;55.130;61.268;2024-01-11T15:32:25;97326.78;;;-13.67;36.33
80164;BME280;70071;55.130;61.268;2024-01-11T15:34:51;97342.22;;;-13.53;36.00
80164;BME280;70071;55.130;61.268;2024-01-11T15:37:18;97275.91;;;-13.53;35.66
80164;BME280;70071;55.130;61.268;2024-01-11T15:39:46;97331.53;;;-12.77;34.45
80164;BME280;70071;55.130;61.268;2024-01-11T15:42:12;97321.06;;;-13.22;34.74
80164;BME280;70071;55.130;61.268;2024-01-11T15:44:38;97291.16;;;-13.02;35.05
80164;BME280;70071;55.130;61.268;2024-01-11T15:47:05;97306.31;;;-13.66;35.78
80164;BME280;70071;55.130;61.268;2024-01-11T15:49:31;97319.66;;;-13.43;35.73
80164;BME280;70071;55.130;61.268;2024-01-11T15:51:58;97291.59;;;-13.61;35.62